sensor_id;sensor_type;location;lat;lon;timestamp;P1;durP1;ratioP1;P2;durP2;ratioP2
77362;SDS011;66428;47.322;9.432;2023-02-01T00:00:06;7.25;;;4.25;;
77362;SDS011;66428;47.322;9.432;2023-02-01T00:02:35;7.53;;;4.20;;
77362;SDS011;66428;47.322;9.432;2023-02-01T00:05:07;6.97;;;3.95;;
77362;SDS011;66428;47.322;9.432;2023-02-01T00:07:35;6.55;;;4.35;;
77362;SDS011;66428;47.322;9.432;2023-02-01T00:10:04;8.18;;;4.43;;
77362;SDS011;66428;47.322;9.432;2023-02-01T00:12:31;8.45;;;4.43;;
77362;SDS011;66428;47.322;9.432;2023-02-01T00:15:00;8.25;;;4.03;;
77362;SDS011;66428;47.322;9.432;2023-02-01T00:17:26;6.85;;;3.97;;
77362;SDS011;66428;47.322;9.432;2023-02-01T00:19:53;6.78;;;3.85;;
77362;SDS011;66428;47.322;9.432;2023-02-01T00:22:21;7.43;;;3.80;;
77362;SDS011;66428;47.322;9.432;2023-02-01T00:24:48;6.82;;;4.38;;
77362;SDS011;66428;47.322;9.432;2023-02-01T00:27:15;6.43;;;3.60;;
77362;SDS011;66428;47.322;9.432;2023-02-01T00:29:49;6.70;;;4.00;;
77362;SDS011;66428;47.322;9.432;2023-02-01T00:32:15;6.22;;;3.80;;
77362;SDS011;66428;47.322;9.432;2023-02-01T00:34:44;6.50;;;4.43;;
77362;SDS011;66428;47.322;9.432;2023-02-01T00:37:13;7.00;;;3.88;;
77362;SDS011;66428;47.322;9.432;2023-02-01T00:42:10;8.32;;;4.65;;
77362;SDS011;66428;47.322;9.432;2023-02-01T00:44:37;7.43;;;4.05;;
77362;SDS011;66428;47.322;9.432;2023-02-01T00:47:06;7.78;;;4.88;;
77362;SDS011;66428;47.322;9.432;2023-02-01T00:49:35;6.72;;;4.28;;
77362;SDS011;66428;47.322;9.432;2023-02-01T00:52:04;6.05;;;4.00;;
77362;SDS011;66428;47.322;9.432;2023-02-01T00:54:33;9.15;;;3.92;;
77362;SDS011;66428;47.322;9.432;2023-02-01T00:56:59;11.05;;;4.28;;
77362;SDS011;66428;47.322;9.432;2023-02-01T00:59:30;7.70;;;4.90;;
77362;SDS011;66428;47.322;9.432;2023-02-01T01:02:00;7.00;;;3.95;;
77362;SDS011;66428;47.322;9.432;2023-02-01T01:04:28;7.35;;;4.65;;
77362;SDS011;66428;47.322;9.432;2023-02-01T01:06:55;10.07;;;4.70;;
77362;SDS011;66428;47.322;9.432;2023-02-01T01:09:23;9.27;;;4.00;;
77362;SDS011;66428;47.322;9.432;2023-02-01T01:11:52;8.40;;;4.03;;
77362;SDS011;66428;47.322;9.432;2023-02-01T01:14:22;7.00;;;4.50;;
77362;SDS011;66428;47.322;9.432;2023-02-01T01:16:50;6.35;;;4.07;;
77362;SDS011;66428;47.322;9.432;2023-02-01T01:19:16;6.55;;;4.15;;
77362;SDS011;66428;47.322;9.432;2023-02-01T01:21:45;7.32;;;4.57;;
77362;SDS011;66428;47.322;9.432;2023-02-01T01:24:12;5.55;;;3.80;;
77362;SDS011;66428;47.322;9.432;2023-02-01T01:26:38;9.52;;;4.40;;
77362;SDS011;66428;47.322;9.432;2023-02-01T01:29:08;6.15;;;4.10;;
77362;SDS011;66428;47.322;9.432;2023-02-01T01:31:35;6.53;;;3.50;;
77362;SDS011;66428;47.322;9.432;2023-02-01T01:34:07;6.90;;;4.07;;
77362;SDS011;66428;47.322;9.432;2023-02-01T01:36:35;5.88;;;3.30;;
77362;SDS011;66428;47.322;9.432;2023-02-01T01:39:06;5.00;;;2.83;;
77362;SDS011;66428;47.322;9.432;2023-02-01T01:41:38;4.50;;;2.42;;
77362;SDS011;66428;47.322;9.432;2023-02-01T01:47:07;4.75;;;2.75;;
77362;SDS011;66428;47.322;9.432;2023-02-01T01:49:39;6.97;;;3.08;;
77362;SDS011;66428;47.322;9.432;2023-02-01T01:52:08;6.30;;;3.17;;
77362;SDS011;66428;47.322;9.432;2023-02-01T01:54:38;4.43;;;2.40;;
77362;SDS011;66428;47.322;9.432;2023-02-01T01:57:08;5.05;;;2.30;;
77362;SDS011;66428;47.322;9.432;2023-02-01T01:59:36;5.53;;;3.08;;
77362;SDS011;66428;47.322;9.432;2023-02-01T02:02:07;3.97;;;2.00;;
77362;SDS011;66428;47.322;9.432;2023-02-01T02:04:36;5.65;;;2.50;;
77362;SDS011;66428;47.322;9.432;2023-02-01T02:07:06;4.47;;;2.35;;
77362;SDS011;66428;47.322;9.432;2023-02-01T02:09:37;5.70;;;2.65;;
77362;SDS011;66428;47.322;9.432;2023-02-01T02:12:18;5.35;;;3.33;;
77362;SDS011;66428;47.322;9.432;2023-02-01T02:14:47;5.35;;;3.30;;
77362;SDS011;66428;47.322;9.432;2023-02-01T02:17:20;6.28;;;3.22;;
77362;SDS011;66428;47.322;9.432;2023-02-01T02:28:18;4.97;;;2.80;;
77362;SDS011;66428;47.322;9.432;2023-02-01T02:43:32;5.78;;;3.13;;
77362;SDS011;66428;47.322;9.432;2023-02-01T02:46:37;5.28;;;2.85;;
77362;SDS011;66428;47.322;9.432;2023-02-01T02:49:25;5.47;;;2.92;;
77362;SDS011;66428;47.322;9.432;2023-02-01T02:52:02;5.40;;;3.13;;
77362;SDS011;66428;47.322;9.432;2023-02-01T02:54:50;7.10;;;2.90;;
77362;SDS011;66428;47.322;9.432;2023-02-01T02:57:19;5.72;;;2.88;;
77362;SDS011;66428;47.322;9.432;2023-02-01T03:00:07;4.35;;;2.88;;
77362;SDS011;66428;47.322;9.432;2023-02-01T03:02:53;4.82;;;2.80;;
77362;SDS011;66428;47.322;9.432;2023-02-01T03:05:42;5.20;;;2.72;;
77362;SDS011;66428;47.322;9.432;2023-02-01T03:08:14;3.88;;;2.25;;
77362;SDS011;66428;47.322;9.432;2023-02-01T03:13:15;6.25;;;3.20;;
77362;SDS011;66428;47.322;9.432;2023-02-01T03:18:28;4.55;;;2.78;;
77362;SDS011;66428;47.322;9.432;2023-02-01T03:20:59;5.45;;;2.78;;
77362;SDS011;66428;47.322;9.432;2023-02-01T03:23:27;4.55;;;2.28;;
77362;SDS011;66428;47.322;9.432;2023-02-01T03:26:00;4.82;;;2.78;;
77362;SDS011;66428;47.322;9.432;2023-02-01T03:28:28;4.32;;;2.67;;
77362;SDS011;66428;47.322;9.432;2023-02-01T03:31:01;4.47;;;2.22;;
77362;SDS011;66428;47.322;9.432;2023-02-01T03:33:28;4.93;;;2.67;;
77362;SDS011;66428;47.322;9.432;2023-02-01T03:36:05;3.90;;;2.30;;
77362;SDS011;66428;47.322;9.432;2023-02-01T03:43:56;2.90;;;2.08;;
77362;SDS011;66428;47.322;9.432;2023-02-01T03:46:34;4.13;;;2.22;;
77362;SDS011;66428;47.322;9.432;2023-02-01T03:49:11;4.30;;;2.10;;
77362;SDS011;66428;47.322;9.432;2023-02-01T03:51:42;4.03;;;2.55;;
77362;SDS011;66428;47.322;9.432;2023-02-01T03:54:12;3.25;;;1.80;;
77362;SDS011;66428;47.322;9.432;2023-02-01T03:56:40;2.85;;;1.50;;
77362;SDS011;66428;47.322;9.432;2023-02-01T03:59:12;2.03;;;1.40;;
77362;SDS011;66428;47.322;9.432;2023-02-01T04:01:40;2.67;;;1.60;;
77362;SDS011;66428;47.322;9.432;2023-02-01T04:06:36;1.40;;;1.10;;
77362;SDS011;66428;47.322;9.432;2023-02-01T04:09:05;1.73;;;1.27;;
77362;SDS011;66428;47.322;9.432;2023-02-01T04:11:31;2.13;;;1.10;;
77362;SDS011;66428;47.322;9.432;2023-02-01T04:13:58;2.10;;;1.02;;
77362;SDS011;66428;47.322;9.432;2023-02-01T04:16:24;1.48;;;0.90;;
77362;SDS011;66428;47.322;9.432;2023-02-01T04:18:53;3.20;;;1.55;;
77362;SDS011;66428;47.322;9.432;2023-02-01T04:21:22;1.67;;;1.10;;
77362;SDS011;66428;47.322;9.432;2023-02-01T04:23:51;2.45;;;1.35;;
77362;SDS011;66428;47.322;9.432;2023-02-01T04:26:18;1.70;;;1.05;;
77362;SDS011;66428;47.322;9.432;2023-02-01T04:28:45;2.25;;;1.10;;
77362;SDS011;66428;47.322;9.432;2023-02-01T04:31:17;2.40;;;1.15;;
77362;SDS011;66428;47.322;9.432;2023-02-01T04:33:46;2.30;;;1.45;;
77362;SDS011;66428;47.322;9.432;2023-02-01T04:36:12;1.92;;;1.15;;
77362;SDS011;66428;47.322;9.432;2023-02-01T04:38:41;2.53;;;1.27;;
77362;SDS011;66428;47.322;9.432;2023-02-01T04:41:08;7.10;;;2.83;;
77362;SDS011;66428;47.322;9.432;2023-02-01T04:43:34;10.05;;;4.82;;
77362;SDS011;66428;47.322;9.432;2023-02-01T04:46:03;15.68;;;6.95;;
77362;SDS011;66428;47.322;9.432;2023-02-01T04:48:33;15.50;;;7.25;;
77362;SDS011;66428;47.322;9.432;2023-02-01T04:51:00;10.00;;;4.38;;
77362;SDS011;66428;47.322;9.432;2023-02-01T04:55:53;2.85;;;1.50;;
77362;SDS011;66428;47.322;9.432;2023-02-01T04:58:22;2.28;;;1.38;;
77362;SDS011;66428;47.322;9.432;2023-02-01T05:00:51;2.45;;;1.58;;
77362;SDS011;66428;47.322;9.432;2023-02-01T05:03:18;2.42;;;1.38;;
77362;SDS011;66428;47.322;9.432;2023-02-01T05:05:47;4.15;;;0.90;;
77362;SDS011;66428;47.322;9.432;2023-02-01T05:08:19;2.55;;;1.35;;
77362;SDS011;66428;47.322;9.432;2023-02-01T05:10:54;2.78;;;1.75;;
77362;SDS011;66428;47.322;9.432;2023-02-01T05:13:25;3.03;;;1.92;;
77362;SDS011;66428;47.322;9.432;2023-02-01T05:16:13;3.00;;;1.75;;
77362;SDS011;66428;47.322;9.432;2023-02-01T05:18:42;2.95;;;1.67;;
77362;SDS011;66428;47.322;9.432;2023-02-01T05:21:08;4.93;;;2.25;;
77362;SDS011;66428;47.322;9.432;2023-02-01T05:23:40;3.47;;;2.00;;
77362;SDS011;66428;47.322;9.432;2023-02-01T05:26:25;4.97;;;2.00;;
77362;SDS011;66428;47.322;9.432;2023-02-01T05:28:54;3.65;;;2.00;;
77362;SDS011;66428;47.322;9.432;2023-02-01T05:31:23;3.60;;;1.80;;
77362;SDS011;66428;47.322;9.432;2023-02-01T05:33:50;5.97;;;2.50;;
77362;SDS011;66428;47.322;9.432;2023-02-01T05:36:16;3.53;;;1.77;;
77362;SDS011;66428;47.322;9.432;2023-02-01T05:38:45;4.82;;;2.30;;
77362;SDS011;66428;47.322;9.432;2023-02-01T05:41:14;3.78;;;1.60;;
77362;SDS011;66428;47.322;9.432;2023-02-01T05:43:43;3.65;;;2.00;;
77362;SDS011;66428;47.322;9.432;2023-02-01T05:46:12;3.80;;;2.00;;
77362;SDS011;66428;47.322;9.432;2023-02-01T05:48:42;3.75;;;1.65;;
77362;SDS011;66428;47.322;9.432;2023-02-01T05:51:14;3.05;;;1.50;;
77362;SDS011;66428;47.322;9.432;2023-02-01T05:53:40;2.80;;;1.65;;
77362;SDS011;66428;47.322;9.432;2023-02-01T05:56:09;4.95;;;1.67;;
77362;SDS011;66428;47.322;9.432;2023-02-01T05:58:36;3.33;;;1.70;;
77362;SDS011;66428;47.322;9.432;2023-02-01T06:01:04;3.13;;;1.77;;
77362;SDS011;66428;47.322;9.432;2023-02-01T06:03:33;3.17;;;1.83;;
77362;SDS011;66428;47.322;9.432;2023-02-01T06:06:08;2.95;;;1.40;;
77362;SDS011;66428;47.322;9.432;2023-02-01T06:08:34;3.65;;;2.20;;
77362;SDS011;66428;47.322;9.432;2023-02-01T06:11:04;2.85;;;1.73;;
77362;SDS011;66428;47.322;9.432;2023-02-01T06:13:36;3.72;;;1.75;;
77362;SDS011;66428;47.322;9.432;2023-02-01T06:16:09;5.03;;;2.35;;
77362;SDS011;66428;47.322;9.432;2023-02-01T06:18:40;6.10;;;2.00;;
77362;SDS011;66428;47.322;9.432;2023-02-01T06:21:10;3.42;;;2.00;;
77362;SDS011;66428;47.322;9.432;2023-02-01T06:23:36;4.57;;;2.13;;
77362;SDS011;66428;47.322;9.432;2023-02-01T06:26:06;3.42;;;1.85;;
77362;SDS011;66428;47.322;9.432;2023-02-01T06:28:38;3.65;;;1.98;;
77362;SDS011;66428;47.322;9.432;2023-02-01T06:31:07;2.83;;;1.80;;
77362;SDS011;66428;47.322;9.432;2023-02-01T06:33:35;2.83;;;1.52;;
77362;SDS011;66428;47.322;9.432;2023-02-01T06:36:02;5.40;;;2.00;;
77362;SDS011;66428;47.322;9.432;2023-02-01T06:38:32;3.75;;;1.80;;
77362;SDS011;66428;47.322;9.432;2023-02-01T06:41:01;3.25;;;1.80;;
77362;SDS011;66428;47.322;9.432;2023-02-01T06:43:28;2.35;;;1.70;;
77362;SDS011;66428;47.322;9.432;2023-02-01T06:45:59;4.07;;;2.13;;
77362;SDS011;66428;47.322;9.432;2023-02-01T06:48:27;3.30;;;1.73;;
77362;SDS011;66428;47.322;9.432;2023-02-01T06:50:56;4.30;;;1.77;;
77362;SDS011;66428;47.322;9.432;2023-02-01T06:53:23;4.30;;;2.05;;
77362;SDS011;66428;47.322;9.432;2023-02-01T06:58:31;3.22;;;1.80;;
77362;SDS011;66428;47.322;9.432;2023-02-01T07:01:06;4.05;;;2.15;;
77362;SDS011;66428;47.322;9.432;2023-02-01T07:03:38;3.78;;;2.05;;
77362;SDS011;66428;47.322;9.432;2023-02-01T07:06:07;3.50;;;2.10;;
77362;SDS011;66428;47.322;9.432;2023-02-01T07:08:35;3.70;;;2.30;;
77362;SDS011;66428;47.322;9.432;2023-02-01T07:11:04;3.92;;;1.98;;
77362;SDS011;66428;47.322;9.432;2023-02-01T07:13:31;3.30;;;2.00;;
77362;SDS011;66428;47.322;9.432;2023-02-01T07:16:03;4.05;;;1.92;;
77362;SDS011;66428;47.322;9.432;2023-02-01T07:18:30;2.60;;;1.70;;
77362;SDS011;66428;47.322;9.432;2023-02-01T07:23:23;2.88;;;1.38;;
77362;SDS011;66428;47.322;9.432;2023-02-01T07:25:55;1.98;;;1.17;;
77362;SDS011;66428;47.322;9.432;2023-02-01T07:28:25;2.58;;;1.33;;
77362;SDS011;66428;47.322;9.432;2023-02-01T07:30:51;5.47;;;2.38;;
77362;SDS011;66428;47.322;9.432;2023-02-01T07:33:22;3.70;;;1.70;;
77362;SDS011;66428;47.322;9.432;2023-02-01T07:35:53;2.13;;;1.30;;
77362;SDS011;66428;47.322;9.432;2023-02-01T07:38:24;2.15;;;1.27;;
77362;SDS011;66428;47.322;9.432;2023-02-01T07:41:00;2.80;;;1.52;;
77362;SDS011;66428;47.322;9.432;2023-02-01T07:43:31;2.17;;;1.25;;
77362;SDS011;66428;47.322;9.432;2023-02-01T07:45:59;4.22;;;2.00;;
77362;SDS011;66428;47.322;9.432;2023-02-01T07:48:28;1.75;;;1.08;;
77362;SDS011;66428;47.322;9.432;2023-02-01T07:51:01;3.13;;;1.70;;
77362;SDS011;66428;47.322;9.432;2023-02-01T07:53:28;2.58;;;1.33;;
77362;SDS011;66428;47.322;9.432;2023-02-01T07:55:57;1.60;;;1.13;;
77362;SDS011;66428;47.322;9.432;2023-02-01T07:58:24;2.20;;;1.40;;
77362;SDS011;66428;47.322;9.432;2023-02-01T08:00:51;1.33;;;0.90;;
77362;SDS011;66428;47.322;9.432;2023-02-01T08:03:36;6.15;;;2.35;;
77362;SDS011;66428;47.322;9.432;2023-02-01T08:06:03;2.85;;;1.50;;
77362;SDS011;66428;47.322;9.432;2023-02-01T08:08:35;6.10;;;2.55;;
77362;SDS011;66428;47.322;9.432;2023-02-01T08:11:06;2.70;;;1.52;;
77362;SDS011;66428;47.322;9.432;2023-02-01T08:13:41;2.00;;;1.00;;
77362;SDS011;66428;47.322;9.432;2023-02-01T08:16:08;1.70;;;1.10;;
77362;SDS011;66428;47.322;9.432;2023-02-01T08:18:40;1.95;;;1.40;;
77362;SDS011;66428;47.322;9.432;2023-02-01T08:21:13;2.95;;;1.30;;
77362;SDS011;66428;47.322;9.432;2023-02-01T08:23:41;2.63;;;1.52;;
77362;SDS011;66428;47.322;9.432;2023-02-01T08:28:37;2.00;;;1.10;;
77362;SDS011;66428;47.322;9.432;2023-02-01T08:31:12;3.35;;;1.83;;
77362;SDS011;66428;47.322;9.432;2023-02-01T08:33:41;2.17;;;1.23;;
77362;SDS011;66428;47.322;9.432;2023-02-01T08:36:08;1.85;;;1.20;;
77362;SDS011;66428;47.322;9.432;2023-02-01T08:38:35;1.95;;;1.10;;
77362;SDS011;66428;47.322;9.432;2023-02-01T08:41:11;2.33;;;1.33;;
77362;SDS011;66428;47.322;9.432;2023-02-01T08:43:38;1.98;;;1.10;;
77362;SDS011;66428;47.322;9.432;2023-02-01T08:46:08;2.45;;;1.30;;
77362;SDS011;66428;47.322;9.432;2023-02-01T08:48:35;2.70;;;1.27;;
77362;SDS011;66428;47.322;9.432;2023-02-01T08:51:05;3.08;;;1.50;;
77362;SDS011;66428;47.322;9.432;2023-02-01T08:53:36;2.80;;;1.80;;
77362;SDS011;66428;47.322;9.432;2023-02-01T08:56:08;3.38;;;1.92;;
77362;SDS011;66428;47.322;9.432;2023-02-01T08:58:39;3.10;;;1.75;;
77362;SDS011;66428;47.322;9.432;2023-02-01T09:01:13;2.25;;;1.70;;
77362;SDS011;66428;47.322;9.432;2023-02-01T09:03:40;2.90;;;1.40;;
77362;SDS011;66428;47.322;9.432;2023-02-01T09:06:08;2.28;;;1.13;;
77362;SDS011;66428;47.322;9.432;2023-02-01T09:08:37;3.03;;;1.60;;
77362;SDS011;66428;47.322;9.432;2023-02-01T09:11:08;2.05;;;1.30;;
77362;SDS011;66428;47.322;9.432;2023-02-01T09:13:36;2.67;;;1.52;;
77362;SDS011;66428;47.322;9.432;2023-02-01T09:16:05;3.17;;;1.42;;
77362;SDS011;66428;47.322;9.432;2023-02-01T09:18:32;4.72;;;1.80;;
77362;SDS011;66428;47.322;9.432;2023-02-01T09:21:03;2.88;;;1.58;;
77362;SDS011;66428;47.322;9.432;2023-02-01T09:23:32;2.80;;;1.52;;
77362;SDS011;66428;47.322;9.432;2023-02-01T09:25:59;2.83;;;1.67;;
77362;SDS011;66428;47.322;9.432;2023-02-01T09:28:28;4.45;;;2.20;;
77362;SDS011;66428;47.322;9.432;2023-02-01T09:30:58;3.30;;;2.20;;
77362;SDS011;66428;47.322;9.432;2023-02-01T09:33:27;3.17;;;1.70;;
77362;SDS011;66428;47.322;9.432;2023-02-01T09:36:01;3.60;;;1.83;;
77362;SDS011;66428;47.322;9.432;2023-02-01T09:38:28;2.88;;;1.60;;
77362;SDS011;66428;47.322;9.432;2023-02-01T09:41:06;2.95;;;1.83;;
77362;SDS011;66428;47.322;9.432;2023-02-01T09:43:48;3.25;;;1.92;;
77362;SDS011;66428;47.322;9.432;2023-02-01T09:46:22;4.20;;;1.77;;
77362;SDS011;66428;47.322;9.432;2023-02-01T09:49:00;6.05;;;2.60;;
77362;SDS011;66428;47.322;9.432;2023-02-01T09:51:42;4.68;;;1.95;;
77362;SDS011;66428;47.322;9.432;2023-02-01T09:54:24;3.72;;;1.50;;
77362;SDS011;66428;47.322;9.432;2023-02-01T09:56:58;2.67;;;1.60;;
77362;SDS011;66428;47.322;9.432;2023-02-01T10:02:02;3.75;;;1.50;;
77362;SDS011;66428;47.322;9.432;2023-02-01T10:04:32;2.65;;;1.48;;
77362;SDS011;66428;47.322;9.432;2023-02-01T10:22:38;3.58;;;1.40;;
77362;SDS011;66428;47.322;9.432;2023-02-01T10:25:30;2.05;;;1.20;;
77362;SDS011;66428;47.322;9.432;2023-02-01T10:28:00;3.80;;;1.98;;
77362;SDS011;66428;47.322;9.432;2023-02-01T10:30:29;3.28;;;1.50;;
77362;SDS011;66428;47.322;9.432;2023-02-01T10:33:24;4.63;;;2.22;;
77362;SDS011;66428;47.322;9.432;2023-02-01T10:36:33;1.48;;;1.00;;
77362;SDS011;66428;47.322;9.432;2023-02-01T10:38:39;3.20;;;1.65;;
77362;SDS011;66428;47.322;9.432;2023-02-01T10:43:40;1.55;;;0.93;;
77362;SDS011;66428;47.322;9.432;2023-02-01T10:46:07;4.18;;;1.55;;
77362;SDS011;66428;47.322;9.432;2023-02-01T10:48:33;2.15;;;1.05;;
77362;SDS011;66428;47.322;9.432;2023-02-01T10:51:10;1.38;;;0.90;;
77362;SDS011;66428;47.322;9.432;2023-02-01T10:56:10;1.98;;;1.10;;
77362;SDS011;66428;47.322;9.432;2023-02-01T10:58:43;2.50;;;1.30;;
77362;SDS011;66428;47.322;9.432;2023-02-01T11:03:58;2.38;;;1.20;;
77362;SDS011;66428;47.322;9.432;2023-02-01T11:06:39;1.55;;;1.10;;
77362;SDS011;66428;47.322;9.432;2023-02-01T11:14:15;1.05;;;0.70;;
77362;SDS011;66428;47.322;9.432;2023-02-01T11:19:36;2.03;;;1.30;;
77362;SDS011;66428;47.322;9.432;2023-02-01T11:22:06;1.88;;;0.90;;
77362;SDS011;66428;47.322;9.432;2023-02-01T11:24:33;1.75;;;0.90;;
77362;SDS011;66428;47.322;9.432;2023-02-01T11:27:02;2.35;;;1.05;;
77362;SDS011;66428;47.322;9.432;2023-02-01T11:29:36;1.35;;;0.98;;
77362;SDS011;66428;47.322;9.432;2023-02-01T11:32:06;1.77;;;0.82;;
77362;SDS011;66428;47.322;9.432;2023-02-01T11:34:56;0.75;;;0.63;;
77362;SDS011;66428;47.322;9.432;2023-02-01T11:39:54;1.63;;;1.13;;
77362;SDS011;66428;47.322;9.432;2023-02-01T11:42:23;1.85;;;1.08;;
77362;SDS011;66428;47.322;9.432;2023-02-01T11:44:50;1.58;;;0.95;;
77362;SDS011;66428;47.322;9.432;2023-02-01T11:49:46;1.80;;;1.02;;
77362;SDS011;66428;47.322;9.432;2023-02-01T12:00:29;3.03;;;1.20;;
77362;SDS011;66428;47.322;9.432;2023-02-01T12:08:04;2.00;;;1.33;;
77362;SDS011;66428;47.322;9.432;2023-02-01T12:26:26;1.88;;;1.08;;
77362;SDS011;66428;47.322;9.432;2023-02-01T12:31:55;1.83;;;1.10;;
77362;SDS011;66428;47.322;9.432;2023-02-01T12:42:23;3.85;;;1.35;;
77362;SDS011;66428;47.322;9.432;2023-02-01T12:44:51;3.78;;;1.80;;
77362;SDS011;66428;47.322;9.432;2023-02-01T12:47:31;3.10;;;1.60;;
77362;SDS011;66428;47.322;9.432;2023-02-01T12:52:28;5.80;;;1.65;;
77362;SDS011;66428;47.322;9.432;2023-02-01T13:00:58;2.60;;;1.60;;
77362;SDS011;66428;47.322;9.432;2023-02-01T13:06:28;3.38;;;1.88;;
77362;SDS011;66428;47.322;9.432;2023-02-01T13:09:04;3.80;;;2.00;;
77362;SDS011;66428;47.322;9.432;2023-02-01T13:11:35;4.65;;;2.75;;
77362;SDS011;66428;47.322;9.432;2023-02-01T13:16:33;3.83;;;2.10;;
77362;SDS011;66428;47.322;9.432;2023-02-01T13:19:05;2.00;;;1.27;;
77362;SDS011;66428;47.322;9.432;2023-02-01T13:21:36;5.53;;;1.80;;
77362;SDS011;66428;47.322;9.432;2023-02-01T13:24:07;2.88;;;1.70;;
77362;SDS011;66428;47.322;9.432;2023-02-01T13:26:45;4.97;;;1.90;;
77362;SDS011;66428;47.322;9.432;2023-02-01T13:29:15;2.25;;;1.30;;
77362;SDS011;66428;47.322;9.432;2023-02-01T13:34:28;2.85;;;1.67;;
77362;SDS011;66428;47.322;9.432;2023-02-01T13:42:03;3.53;;;1.60;;
77362;SDS011;66428;47.322;9.432;2023-02-01T13:44:38;2.90;;;2.03;;
77362;SDS011;66428;47.322;9.432;2023-02-01T13:47:41;3.95;;;2.00;;
77362;SDS011;66428;47.322;9.432;2023-02-01T13:50:13;3.92;;;1.92;;
77362;SDS011;66428;47.322;9.432;2023-02-01T13:52:45;2.33;;;1.27;;
77362;SDS011;66428;47.322;9.432;2023-02-01T13:57:51;3.63;;;1.83;;
77362;SDS011;66428;47.322;9.432;2023-02-01T14:00:29;3.83;;;2.13;;
77362;SDS011;66428;47.322;9.432;2023-02-01T14:23:41;2.85;;;1.90;;
77362;SDS011;66428;47.322;9.432;2023-02-01T14:26:18;3.10;;;2.10;;
77362;SDS011;66428;47.322;9.432;2023-02-01T14:31:31;2.92;;;1.80;;
77362;SDS011;66428;47.322;9.432;2023-02-01T14:33:59;2.60;;;2.03;;
77362;SDS011;66428;47.322;9.432;2023-02-01T14:36:26;3.97;;;2.03;;
77362;SDS011;66428;47.322;9.432;2023-02-01T14:39:19;8.88;;;2.42;;
77362;SDS011;66428;47.322;9.432;2023-02-01T14:41:52;4.43;;;2.65;;
77362;SDS011;66428;47.322;9.432;2023-02-01T14:44:28;3.88;;;2.22;;
77362;SDS011;66428;47.322;9.432;2023-02-01T14:49:33;4.30;;;2.30;;
77362;SDS011;66428;47.322;9.432;2023-02-01T14:52:05;4.05;;;2.40;;
77362;SDS011;66428;47.322;9.432;2023-02-01T14:54:32;4.85;;;2.30;;
77362;SDS011;66428;47.322;9.432;2023-02-01T14:57:01;3.95;;;2.00;;
77362;SDS011;66428;47.322;9.432;2023-02-01T14:59:28;4.10;;;2.10;;
77362;SDS011;66428;47.322;9.432;2023-02-01T15:01:59;6.38;;;2.20;;
77362;SDS011;66428;47.322;9.432;2023-02-01T15:04:27;3.88;;;2.03;;
77362;SDS011;66428;47.322;9.432;2023-02-01T15:06:57;3.45;;;2.22;;
77362;SDS011;66428;47.322;9.432;2023-02-01T15:09:25;3.22;;;1.88;;
77362;SDS011;66428;47.322;9.432;2023-02-01T15:12:08;3.47;;;2.20;;
77362;SDS011;66428;47.322;9.432;2023-02-01T15:18:01;5.65;;;3.72;;
77362;SDS011;66428;47.322;9.432;2023-02-01T15:20:31;3.60;;;1.83;;
77362;SDS011;66428;47.322;9.432;2023-02-01T15:23:05;6.32;;;4.00;;
77362;SDS011;66428;47.322;9.432;2023-02-01T15:25:36;4.65;;;2.20;;
77362;SDS011;66428;47.322;9.432;2023-02-01T15:28:04;2.90;;;1.55;;
77362;SDS011;66428;47.322;9.432;2023-02-01T15:30:33;3.45;;;2.13;;
77362;SDS011;66428;47.322;9.432;2023-02-01T15:33:15;3.25;;;2.30;;
77362;SDS011;66428;47.322;9.432;2023-02-01T15:41:37;2.92;;;1.73;;
77362;SDS011;66428;47.322;9.432;2023-02-01T15:43:43;4.28;;;2.42;;
77362;SDS011;66428;47.322;9.432;2023-02-01T15:46:16;4.65;;;2.25;;
77362;SDS011;66428;47.322;9.432;2023-02-01T15:48:47;3.63;;;2.40;;
77362;SDS011;66428;47.322;9.432;2023-02-01T15:51:19;9.95;;;2.95;;
77362;SDS011;66428;47.322;9.432;2023-02-01T15:53:48;3.85;;;2.20;;
77362;SDS011;66428;47.322;9.432;2023-02-01T15:56:23;2.70;;;1.67;;
77362;SDS011;66428;47.322;9.432;2023-02-01T15:58:53;3.33;;;2.05;;
77362;SDS011;66428;47.322;9.432;2023-02-01T16:01:23;4.47;;;2.35;;
77362;SDS011;66428;47.322;9.432;2023-02-01T16:04:05;3.35;;;2.50;;
77362;SDS011;66428;47.322;9.432;2023-02-01T16:06:49;3.15;;;2.13;;
77362;SDS011;66428;47.322;9.432;2023-02-01T16:09:22;5.30;;;2.58;;
77362;SDS011;66428;47.322;9.432;2023-02-01T16:14:22;3.97;;;2.35;;
77362;SDS011;66428;47.322;9.432;2023-02-01T16:16:51;4.35;;;2.20;;
77362;SDS011;66428;47.322;9.432;2023-02-01T16:19:19;3.47;;;2.25;;
77362;SDS011;66428;47.322;9.432;2023-02-01T16:21:50;3.92;;;1.90;;
77362;SDS011;66428;47.322;9.432;2023-02-01T16:24:19;5.85;;;3.00;;
77362;SDS011;66428;47.322;9.432;2023-02-01T16:26:47;4.13;;;2.17;;
77362;SDS011;66428;47.322;9.432;2023-02-01T16:29:16;5.15;;;3.00;;
77362;SDS011;66428;47.322;9.432;2023-02-01T16:31:45;3.30;;;1.98;;
77362;SDS011;66428;47.322;9.432;2023-02-01T16:34:15;5.55;;;2.83;;
77362;SDS011;66428;47.322;9.432;2023-02-01T16:36:49;4.93;;;2.90;;
77362;SDS011;66428;47.322;9.432;2023-02-01T16:39:18;8.18;;;3.47;;
77362;SDS011;66428;47.322;9.432;2023-02-01T16:41:47;6.68;;;3.25;;
77362;SDS011;66428;47.322;9.432;2023-02-01T16:44:14;3.67;;;2.50;;
77362;SDS011;66428;47.322;9.432;2023-02-01T16:46:44;5.88;;;3.30;;
77362;SDS011;66428;47.322;9.432;2023-02-01T16:49:16;3.83;;;2.33;;
77362;SDS011;66428;47.322;9.432;2023-02-01T16:51:44;5.10;;;2.25;;
77362;SDS011;66428;47.322;9.432;2023-02-01T16:54:11;5.00;;;2.42;;
77362;SDS011;66428;47.322;9.432;2023-02-01T16:56:40;6.55;;;2.38;;
77362;SDS011;66428;47.322;9.432;2023-02-01T16:59:11;5.20;;;2.70;;
77362;SDS011;66428;47.322;9.432;2023-02-01T17:01:40;8.65;;;2.13;;
77362;SDS011;66428;47.322;9.432;2023-02-01T17:04:08;4.32;;;2.30;;
77362;SDS011;66428;47.322;9.432;2023-02-01T17:06:37;5.05;;;2.30;;
77362;SDS011;66428;47.322;9.432;2023-02-01T17:09:08;4.75;;;3.13;;
77362;SDS011;66428;47.322;9.432;2023-02-01T17:11:37;4.80;;;3.22;;
77362;SDS011;66428;47.322;9.432;2023-02-01T17:14:23;4.53;;;2.60;;
77362;SDS011;66428;47.322;9.432;2023-02-01T17:16:53;3.92;;;2.30;;
77362;SDS011;66428;47.322;9.432;2023-02-01T17:19:25;3.80;;;2.47;;
77362;SDS011;66428;47.322;9.432;2023-02-01T17:21:55;5.38;;;1.77;;
77362;SDS011;66428;47.322;9.432;2023-02-01T17:24:26;3.05;;;2.10;;
77362;SDS011;66428;47.322;9.432;2023-02-01T17:27:06;5.45;;;3.13;;
77362;SDS011;66428;47.322;9.432;2023-02-01T17:29:33;5.32;;;2.72;;
77362;SDS011;66428;47.322;9.432;2023-02-01T17:32:02;3.58;;;2.05;;
77362;SDS011;66428;47.322;9.432;2023-02-01T17:34:31;6.50;;;3.17;;
77362;SDS011;66428;47.322;9.432;2023-02-01T17:36:58;4.47;;;2.28;;
77362;SDS011;66428;47.322;9.432;2023-02-01T17:39:27;4.78;;;2.22;;
77362;SDS011;66428;47.322;9.432;2023-02-01T17:42:12;2.70;;;1.70;;
77362;SDS011;66428;47.322;9.432;2023-02-01T17:44:41;4.38;;;2.00;;
77362;SDS011;66428;47.322;9.432;2023-02-01T17:47:10;4.45;;;1.83;;
77362;SDS011;66428;47.322;9.432;2023-02-01T17:49:41;4.60;;;1.80;;
77362;SDS011;66428;47.322;9.432;2023-02-01T17:52:13;4.25;;;2.40;;
77362;SDS011;66428;47.322;9.432;2023-02-01T17:54:42;5.15;;;2.17;;
77362;SDS011;66428;47.322;9.432;2023-02-01T17:57:11;3.72;;;2.28;;
77362;SDS011;66428;47.322;9.432;2023-02-01T17:59:37;5.70;;;2.28;;
77362;SDS011;66428;47.322;9.432;2023-02-01T18:02:11;3.40;;;1.90;;
77362;SDS011;66428;47.322;9.432;2023-02-01T18:04:40;2.88;;;2.25;;
77362;SDS011;66428;47.322;9.432;2023-02-01T18:07:07;5.15;;;1.90;;
77362;SDS011;66428;47.322;9.432;2023-02-01T18:09:36;2.92;;;1.92;;
77362;SDS011;66428;47.322;9.432;2023-02-01T18:12:03;4.70;;;2.00;;
77362;SDS011;66428;47.322;9.432;2023-02-01T18:14:30;3.63;;;1.60;;
77362;SDS011;66428;47.322;9.432;2023-02-01T18:16:59;2.50;;;1.80;;
77362;SDS011;66428;47.322;9.432;2023-02-01T18:19:31;3.85;;;1.80;;